aviador You're here:

LYNI Decoded Metar

NIS in SERBIA
Report Time2017-08-24 08:30:00
UTC Time2017-08-24 08:50:24
Flight Rules vfr VFR
WindVRB at 03 kt
Visibility9999 m
Phenomena:N/A
Clouds:N/A
Expected CloudBase > 5,200 ft AGL from Temp-Dew spread
CeilingNone
Temp21°C (ISA +7)
Dew Point08°C (43% RH)
AAT19.4°C
QNH1022 hPa
Density Alt1,362 ft
Elevation663 ft
Report Wrong Elevation
Raw Report
LYNI 240830Z VRB03KT CAVOK 21/08 Q1022 NOSIG=

Extra information for LYNI:More info

Metar Taf Metar & Taf Last 4 Metars F.Rules Stats Wind Profile Meteogram Temp Stats Airport Information Weather charts Add Link Nearby VenuesMetar ALERT Operation Metar Decoded Social comments